sensor_id;sensor_type;location;lat;lon;timestamp;pressure;altitude;pressure_sealevel;temperature;humidity
60244;BME280;46106;51.468;5.814;2023-10-08T00:01:08;101976.34;;;17.02;100.00
60244;BME280;46106;51.468;5.814;2023-10-08T00:03:36;101973.97;;;16.98;100.00
60244;BME280;46106;51.468;5.814;2023-10-08T00:06:03;101979.78;;;16.95;100.00
60244;BME280;46106;51.468;5.814;2023-10-08T00:08:35;101987.19;;;16.94;100.00
60244;BME280;46106;51.468;5.814;2023-10-08T00:11:00;101978.72;;;16.86;100.00
60244;BME280;46106;51.468;5.814;2023-10-08T00:13:31;101998.53;;;16.91;100.00
60244;BME280;46106;51.468;5.814;2023-10-08T00:16:01;101987.63;;;16.78;100.00
60244;BME280;46106;51.468;5.814;2023-10-08T00:18:26;101979.34;;;16.78;100.00
60244;BME280;46106;51.468;5.814;2023-10-08T00:20:53;101995.06;;;16.78;100.00
60244;BME280;46106;51.468;5.814;2023-10-08T00:23:41;101990.66;;;16.75;100.00
60244;BME280;46106;51.468;5.814;2023-10-08T00:26:14;101990.47;;;16.67;100.00
60244;BME280;46106;51.468;5.814;2023-10-08T00:28:44;101969.00;;;16.59;100.00
60244;BME280;46106;51.468;5.814;2023-10-08T00:31:16;101976.94;;;16.52;100.00
60244;BME280;46106;51.468;5.814;2023-10-08T00:33:43;101993.53;;;16.52;100.00
60244;BME280;46106;51.468;5.814;2023-10-08T00:36:10;101988.19;;;16.40;100.00
60244;BME280;46106;51.468;5.814;2023-10-08T00:38:48;101989.59;;;16.34;100.00
60244;BME280;46106;51.468;5.814;2023-10-08T00:41:19;101988.72;;;16.33;100.00
60244;BME280;46106;51.468;5.814;2023-10-08T00:43:48;101985.50;;;16.28;100.00
60244;BME280;46106;51.468;5.814;2023-10-08T00:46:17;101984.47;;;16.29;100.00
60244;BME280;46106;51.468;5.814;2023-10-08T00:48:56;101996.03;;;16.23;100.00
60244;BME280;46106;51.468;5.814;2023-10-08T00:51:27;101997.44;;;16.17;100.00
60244;BME280;46106;51.468;5.814;2023-10-08T00:54:01;101990.56;;;16.12;100.00
60244;BME280;46106;51.468;5.814;2023-10-08T00:56:32;101987.69;;;16.02;100.00
60244;BME280;46106;51.468;5.814;2023-10-08T00:59:17;102003.75;;;15.97;100.00
60244;BME280;46106;51.468;5.814;2023-10-08T01:01:46;101985.81;;;15.91;100.00
60244;BME280;46106;51.468;5.814;2023-10-08T01:04:17;101994.38;;;15.88;100.00
60244;BME280;46106;51.468;5.814;2023-10-08T01:06:46;102012.22;;;15.84;100.00
60244;BME280;46106;51.468;5.814;2023-10-08T01:09:14;102002.41;;;15.80;100.00
60244;BME280;46106;51.468;5.814;2023-10-08T01:11:44;102007.19;;;15.78;100.00
60244;BME280;46106;51.468;5.814;2023-10-08T01:14:16;101995.75;;;15.71;100.00
60244;BME280;46106;51.468;5.814;2023-10-08T01:16:46;102012.44;;;15.70;100.00
60244;BME280;46106;51.468;5.814;2023-10-08T01:19:17;101994.59;;;15.74;100.00
60244;BME280;46106;51.468;5.814;2023-10-08T01:21:47;101993.59;;;15.63;100.00
60244;BME280;46106;51.468;5.814;2023-10-08T01:24:14;101980.31;;;15.57;100.00
60244;BME280;46106;51.468;5.814;2023-10-08T01:26:42;101992.38;;;15.56;100.00
60244;BME280;46106;51.468;5.814;2023-10-08T01:29:12;101990.34;;;15.58;100.00
60244;BME280;46106;51.468;5.814;2023-10-08T01:31:47;101993.47;;;15.54;100.00
60244;BME280;46106;51.468;5.814;2023-10-08T01:34:18;101989.38;;;15.48;100.00
60244;BME280;46106;51.468;5.814;2023-10-08T01:36:43;101992.63;;;15.42;100.00
60244;BME280;46106;51.468;5.814;2023-10-08T01:39:10;101980.47;;;15.33;100.00
60244;BME280;46106;51.468;5.814;2023-10-08T01:41:43;101987.59;;;15.36;100.00
60244;BME280;46106;51.468;5.814;2023-10-08T01:44:08;101983.84;;;15.37;100.00
60244;BME280;46106;51.468;5.814;2023-10-08T01:46:34;101966.53;;;15.35;100.00
60244;BME280;46106;51.468;5.814;2023-10-08T01:49:00;101975.56;;;15.37;100.00
60244;BME280;46106;51.468;5.814;2023-10-08T01:51:29;101967.41;;;15.35;100.00
60244;BME280;46106;51.468;5.814;2023-10-08T01:54:03;101975.19;;;15.41;100.00
60244;BME280;46106;51.468;5.814;2023-10-08T01:56:39;101974.91;;;15.44;100.00
60244;BME280;46106;51.468;5.814;2023-10-08T01:59:14;101969.91;;;15.50;100.00
60244;BME280;46106;51.468;5.814;2023-10-08T02:01:41;101985.31;;;15.41;100.00
60244;BME280;46106;51.468;5.814;2023-10-08T02:04:06;101983.19;;;15.44;100.00
60244;BME280;46106;51.468;5.814;2023-10-08T02:06:37;101986.22;;;15.41;100.00
60244;BME280;46106;51.468;5.814;2023-10-08T02:09:02;101990.47;;;15.46;100.00
60244;BME280;46106;51.468;5.814;2023-10-08T02:11:47;101999.38;;;15.49;100.00
60244;BME280;46106;51.468;5.814;2023-10-08T02:14:17;102006.28;;;15.55;100.00
60244;BME280;46106;51.468;5.814;2023-10-08T02:16:43;102007.91;;;15.46;100.00
60244;BME280;46106;51.468;5.814;2023-10-08T02:19:09;102006.41;;;15.42;100.00
60244;BME280;46106;51.468;5.814;2023-10-08T02:21:39;102011.81;;;15.43;100.00
60244;BME280;46106;51.468;5.814;2023-10-08T02:24:08;102009.16;;;15.42;100.00
60244;BME280;46106;51.468;5.814;2023-10-08T02:26:37;102009.53;;;15.37;100.00
60244;BME280;46106;51.468;5.814;2023-10-08T02:29:04;102010.28;;;15.28;100.00
60244;BME280;46106;51.468;5.814;2023-10-08T02:31:41;101995.09;;;15.22;100.00
60244;BME280;46106;51.468;5.814;2023-10-08T02:34:07;101990.69;;;15.20;100.00
60244;BME280;46106;51.468;5.814;2023-10-08T02:36:37;101996.22;;;15.20;100.00
60244;BME280;46106;51.468;5.814;2023-10-08T02:39:11;102008.66;;;15.25;100.00
60244;BME280;46106;51.468;5.814;2023-10-08T02:41:56;102006.88;;;15.24;100.00
60244;BME280;46106;51.468;5.814;2023-10-08T02:44:25;102013.69;;;15.20;100.00
60244;BME280;46106;51.468;5.814;2023-10-08T02:46:51;102003.63;;;15.19;100.00
60244;BME280;46106;51.468;5.814;2023-10-08T02:49:18;102007.25;;;15.09;100.00
60244;BME280;46106;51.468;5.814;2023-10-08T02:51:54;102019.78;;;15.13;100.00
60244;BME280;46106;51.468;5.814;2023-10-08T02:54:21;102019.69;;;15.14;100.00
60244;BME280;46106;51.468;5.814;2023-10-08T02:56:53;102018.94;;;15.12;100.00
60244;BME280;46106;51.468;5.814;2023-10-08T02:59:28;102024.22;;;15.15;100.00
60244;BME280;46106;51.468;5.814;2023-10-08T03:01:53;102043.63;;;15.14;100.00
60244;BME280;46106;51.468;5.814;2023-10-08T03:04:21;102049.03;;;15.15;100.00
60244;BME280;46106;51.468;5.814;2023-10-08T03:06:51;102053.53;;;15.16;100.00
60244;BME280;46106;51.468;5.814;2023-10-08T03:09:22;102061.06;;;15.14;100.00
60244;BME280;46106;51.468;5.814;2023-10-08T03:11:57;102040.09;;;15.00;100.00
60244;BME280;46106;51.468;5.814;2023-10-08T03:14:23;102050.00;;;15.03;100.00
60244;BME280;46106;51.468;5.814;2023-10-08T03:16:53;102039.06;;;15.01;100.00
60244;BME280;46106;51.468;5.814;2023-10-08T03:19:21;102033.91;;;14.97;100.00
60244;BME280;46106;51.468;5.814;2023-10-08T03:21:47;102036.91;;;14.94;100.00
60244;BME280;46106;51.468;5.814;2023-10-08T03:24:35;102037.06;;;14.92;100.00
60244;BME280;46106;51.468;5.814;2023-10-08T03:27:01;102029.50;;;14.83;100.00
60244;BME280;46106;51.468;5.814;2023-10-08T03:29:38;102039.56;;;14.84;100.00
60244;BME280;46106;51.468;5.814;2023-10-08T03:32:11;102036.63;;;14.85;100.00
60244;BME280;46106;51.468;5.814;2023-10-08T03:34:47;102045.69;;;14.87;100.00
60244;BME280;46106;51.468;5.814;2023-10-08T03:37:18;102039.38;;;14.74;100.00
60244;BME280;46106;51.468;5.814;2023-10-08T03:39:48;102049.41;;;14.75;100.00
60244;BME280;46106;51.468;5.814;2023-10-08T03:42:23;102051.03;;;14.78;100.00
60244;BME280;46106;51.468;5.814;2023-10-08T03:44:51;102053.16;;;14.74;100.00
60244;BME280;46106;51.468;5.814;2023-10-08T03:47:21;102056.56;;;14.78;100.00
60244;BME280;46106;51.468;5.814;2023-10-08T03:49:49;102041.13;;;14.75;100.00
60244;BME280;46106;51.468;5.814;2023-10-08T03:52:17;102044.13;;;14.72;100.00
60244;BME280;46106;51.468;5.814;2023-10-08T03:54:47;102039.75;;;14.69;100.00
60244;BME280;46106;51.468;5.814;2023-10-08T03:57:30;102060.78;;;14.70;100.00
60244;BME280;46106;51.468;5.814;2023-10-08T04:00:08;102058.31;;;14.79;100.00
60244;BME280;46106;51.468;5.814;2023-10-08T04:02:37;102045.38;;;14.68;100.00
60244;BME280;46106;51.468;5.814;2023-10-08T04:05:07;102054.28;;;14.72;100.00
60244;BME280;46106;51.468;5.814;2023-10-08T04:07:45;102055.38;;;14.69;100.00
60244;BME280;46106;51.468;5.814;2023-10-08T04:10:32;102054.84;;;14.64;100.00
60244;BME280;46106;51.468;5.814;2023-10-08T04:13:06;102062.38;;;14.62;100.00
60244;BME280;46106;51.468;5.814;2023-10-08T04:15:35;102043.28;;;14.59;100.00
60244;BME280;46106;51.468;5.814;2023-10-08T04:18:12;102031.09;;;14.50;100.00
60244;BME280;46106;51.468;5.814;2023-10-08T04:20:38;102039.59;;;14.47;100.00
60244;BME280;46106;51.468;5.814;2023-10-08T04:23:06;102033.78;;;14.39;100.00
60244;BME280;46106;51.468;5.814;2023-10-08T04:25:39;102049.19;;;14.41;100.00
60244;BME280;46106;51.468;5.814;2023-10-08T04:28:05;102059.66;;;14.49;100.00
60244;BME280;46106;51.468;5.814;2023-10-08T04:30:35;102056.66;;;14.52;100.00
60244;BME280;46106;51.468;5.814;2023-10-08T04:33:05;102061.53;;;14.48;100.00
60244;BME280;46106;51.468;5.814;2023-10-08T04:35:38;102049.88;;;14.45;100.00
60244;BME280;46106;51.468;5.814;2023-10-08T04:38:19;102055.59;;;14.42;100.00
60244;BME280;46106;51.468;5.814;2023-10-08T04:40:47;102063.31;;;14.49;100.00
60244;BME280;46106;51.468;5.814;2023-10-08T04:43:18;102052.97;;;14.40;100.00
60244;BME280;46106;51.468;5.814;2023-10-08T04:45:57;102063.41;;;14.48;100.00
60244;BME280;46106;51.468;5.814;2023-10-08T04:48:23;102064.50;;;14.45;100.00
60244;BME280;46106;51.468;5.814;2023-10-08T04:50:51;102071.00;;;14.44;100.00
60244;BME280;46106;51.468;5.814;2023-10-08T04:53:27;102081.72;;;14.36;100.00
60244;BME280;46106;51.468;5.814;2023-10-08T04:56:16;102107.84;;;14.43;100.00
60244;BME280;46106;51.468;5.814;2023-10-08T04:58:47;102109.59;;;14.44;100.00
60244;BME280;46106;51.468;5.814;2023-10-08T05:01:18;102113.59;;;14.40;100.00
60244;BME280;46106;51.468;5.814;2023-10-08T05:03:44;102096.31;;;14.38;100.00
60244;BME280;46106;51.468;5.814;2023-10-08T05:06:32;102090.50;;;14.30;100.00
60244;BME280;46106;51.468;5.814;2023-10-08T05:09:13;102107.22;;;14.40;100.00
60244;BME280;46106;51.468;5.814;2023-10-08T05:11:51;102096.75;;;14.32;100.00
60244;BME280;46106;51.468;5.814;2023-10-08T05:17:06;102103.88;;;14.34;100.00
60244;BME280;46106;51.468;5.814;2023-10-08T05:19:44;102102.91;;;14.36;100.00
60244;BME280;46106;51.468;5.814;2023-10-08T05:22:28;102125.06;;;14.34;100.00
60244;BME280;46106;51.468;5.814;2023-10-08T05:24:54;102112.03;;;14.36;100.00
60244;BME280;46106;51.468;5.814;2023-10-08T05:27:45;102110.13;;;14.25;100.00
60244;BME280;46106;51.468;5.814;2023-10-08T05:30:27;102115.41;;;14.28;100.00
60244;BME280;46106;51.468;5.814;2023-10-08T05:33:03;102118.50;;;14.24;100.00
60244;BME280;46106;51.468;5.814;2023-10-08T05:35:39;102113.44;;;14.18;100.00
60244;BME280;46106;51.468;5.814;2023-10-08T05:38:05;102109.81;;;14.17;100.00
60244;BME280;46106;51.468;5.814;2023-10-08T05:41:06;102121.03;;;14.14;100.00
60244;BME280;46106;51.468;5.814;2023-10-08T05:43:53;102117.75;;;14.09;100.00
60244;BME280;46106;51.468;5.814;2023-10-08T05:46:40;102112.13;;;14.10;100.00
60244;BME280;46106;51.468;5.814;2023-10-08T05:49:14;102111.34;;;14.08;100.00
60244;BME280;46106;51.468;5.814;2023-10-08T05:52:00;102114.69;;;14.01;100.00
60244;BME280;46106;51.468;5.814;2023-10-08T05:54:29;102103.78;;;13.99;100.00
60244;BME280;46106;51.468;5.814;2023-10-08T05:56:56;102107.53;;;13.98;100.00
60244;BME280;46106;51.468;5.814;2023-10-08T05:59:44;102092.13;;;13.95;100.00
60244;BME280;46106;51.468;5.814;2023-10-08T06:02:28;102093.00;;;13.96;100.00
60244;BME280;46106;51.468;5.814;2023-10-08T06:05:07;102092.44;;;14.04;100.00
60244;BME280;46106;51.468;5.814;2023-10-08T06:07:52;102103.53;;;14.15;100.00
60244;BME280;46106;51.468;5.814;2023-10-08T06:10:22;102101.47;;;14.06;100.00
60244;BME280;46106;51.468;5.814;2023-10-08T06:15:50;102096.91;;;14.18;100.00
60244;BME280;46106;51.468;5.814;2023-10-08T06:18:20;102101.19;;;14.22;100.00
60244;BME280;46106;51.468;5.814;2023-10-08T06:20:46;102088.88;;;14.14;100.00
60244;BME280;46106;51.468;5.814;2023-10-08T06:23:12;102094.59;;;14.11;100.00
60244;BME280;46106;51.468;5.814;2023-10-08T06:25:41;102103.69;;;14.25;100.00
60244;BME280;46106;51.468;5.814;2023-10-08T06:28:16;102110.22;;;14.24;100.00
60244;BME280;46106;51.468;5.814;2023-10-08T06:30:49;102117.03;;;14.31;100.00
60244;BME280;46106;51.468;5.814;2023-10-08T06:33:19;102117.03;;;14.31;100.00
60244;BME280;46106;51.468;5.814;2023-10-08T06:35:45;102134.31;;;14.33;100.00
60244;BME280;46106;51.468;5.814;2023-10-08T06:38:23;102137.97;;;14.33;100.00
60244;BME280;46106;51.468;5.814;2023-10-08T06:40:50;102120.91;;;14.28;100.00
60244;BME280;46106;51.468;5.814;2023-10-08T06:43:18;102124.19;;;14.33;100.00
60244;BME280;46106;51.468;5.814;2023-10-08T06:45:50;102125.72;;;14.38;100.00
60244;BME280;46106;51.468;5.814;2023-10-08T06:48:23;102117.44;;;14.38;100.00
60244;BME280;46106;51.468;5.814;2023-10-08T06:50:51;102113.19;;;14.33;100.00
60244;BME280;46106;51.468;5.814;2023-10-08T06:53:17;102118.47;;;14.37;100.00
60244;BME280;46106;51.468;5.814;2023-10-08T06:55:48;102112.28;;;14.33;100.00
60244;BME280;46106;51.468;5.814;2023-10-08T06:58:20;102127.69;;;14.48;100.00
60244;BME280;46106;51.468;5.814;2023-10-08T07:00:46;102135.38;;;14.56;100.00
60244;BME280;46106;51.468;5.814;2023-10-08T07:03:13;102142.50;;;14.59;100.00
60244;BME280;46106;51.468;5.814;2023-10-08T07:05:44;102154.44;;;14.59;100.00
60244;BME280;46106;51.468;5.814;2023-10-08T07:08:20;102169.31;;;14.57;100.00
60244;BME280;46106;51.468;5.814;2023-10-08T07:10:48;102166.91;;;14.52;100.00
60244;BME280;46106;51.468;5.814;2023-10-08T07:13:14;102178.34;;;14.72;100.00
60244;BME280;46106;51.468;5.814;2023-10-08T07:15:45;102181.91;;;14.85;100.00
60244;BME280;46106;51.468;5.814;2023-10-08T07:18:11;102181.84;;;14.74;100.00
60244;BME280;46106;51.468;5.814;2023-10-08T07:20:45;102174.34;;;14.76;100.00
60244;BME280;46106;51.468;5.814;2023-10-08T07:23:11;102165.03;;;14.89;100.00
60244;BME280;46106;51.468;5.814;2023-10-08T07:25:56;102163.16;;;14.90;100.00
60244;BME280;46106;51.468;5.814;2023-10-08T07:28:39;102161.69;;;14.97;100.00
60244;BME280;46106;51.468;5.814;2023-10-08T07:31:14;102167.84;;;15.01;100.00
60244;BME280;46106;51.468;5.814;2023-10-08T07:33:51;102177.28;;;15.10;100.00
60244;BME280;46106;51.468;5.814;2023-10-08T07:36:23;102179.81;;;15.13;100.00
60244;BME280;46106;51.468;5.814;2023-10-08T07:38:48;102170.94;;;15.20;100.00
60244;BME280;46106;51.468;5.814;2023-10-08T07:41:14;102174.97;;;15.28;100.00
60244;BME280;46106;51.468;5.814;2023-10-08T07:43:44;102164.97;;;15.27;100.00
60244;BME280;46106;51.468;5.814;2023-10-08T07:46:10;102172.69;;;15.21;100.00
60244;BME280;46106;51.468;5.814;2023-10-08T07:48:37;102182.84;;;15.21;100.00
60244;BME280;46106;51.468;5.814;2023-10-08T07:51:09;102190.34;;;15.43;100.00
60244;BME280;46106;51.468;5.814;2023-10-08T07:53:35;102188.63;;;15.53;100.00
60244;BME280;46106;51.468;5.814;2023-10-08T07:56:05;102198.09;;;15.38;100.00
60244;BME280;46106;51.468;5.814;2023-10-08T07:58:32;102190.25;;;15.20;100.00
60244;BME280;46106;51.468;5.814;2023-10-08T08:01:11;102203.59;;;15.38;100.00
60244;BME280;46106;51.468;5.814;2023-10-08T08:03:39;102213.94;;;15.47;100.00
60244;BME280;46106;51.468;5.814;2023-10-08T08:06:07;102209.69;;;15.43;100.00
60244;BME280;46106;51.468;5.814;2023-10-08T08:08:34;102216.06;;;15.43;100.00
60244;BME280;46106;51.468;5.814;2023-10-08T08:11:10;102210.78;;;15.40;100.00
60244;BME280;46106;51.468;5.814;2023-10-08T08:13:39;102213.47;;;15.53;100.00
60244;BME280;46106;51.468;5.814;2023-10-08T08:16:08;102217.09;;;15.54;100.00
60244;BME280;46106;51.468;5.814;2023-10-08T08:18:50;102221.38;;;15.58;100.00
60244;BME280;46106;51.468;5.814;2023-10-08T08:21:18;102222.91;;;15.62;100.00
60244;BME280;46106;51.468;5.814;2023-10-08T08:23:47;102225.28;;;15.67;100.00
60244;BME280;46106;51.468;5.814;2023-10-08T08:26:18;102229.19;;;15.75;100.00
60244;BME280;46106;51.468;5.814;2023-10-08T08:29:00;102225.63;;;15.86;100.00
60244;BME280;46106;51.468;5.814;2023-10-08T08:31:32;102225.50;;;15.88;100.00
60244;BME280;46106;51.468;5.814;2023-10-08T08:34:01;102226.78;;;16.06;100.00
60244;BME280;46106;51.468;5.814;2023-10-08T08:36:40;102235.47;;;16.24;100.00
60244;BME280;46106;51.468;5.814;2023-10-08T08:39:12;102237.75;;;16.30;100.00
60244;BME280;46106;51.468;5.814;2023-10-08T08:41:58;102247.91;;;16.52;100.00
60244;BME280;46106;51.468;5.814;2023-10-08T08:44:28;102254.06;;;16.79;100.00
60244;BME280;46106;51.468;5.814;2023-10-08T08:47:00;102259.00;;;16.86;100.00
60244;BME280;46106;51.468;5.814;2023-10-08T08:49:32;102248.78;;;16.76;100.00
60244;BME280;46106;51.468;5.814;2023-10-08T08:52:00;102253.94;;;16.92;100.00
60244;BME280;46106;51.468;5.814;2023-10-08T08:54:27;102259.91;;;17.19;100.00
60244;BME280;46106;51.468;5.814;2023-10-08T08:56:56;102274.94;;;16.83;100.00
60244;BME280;46106;51.468;5.814;2023-10-08T08:59:23;102270.94;;;16.87;100.00
60244;BME280;46106;51.468;5.814;2023-10-08T09:01:49;102275.72;;;16.85;100.00
60244;BME280;46106;51.468;5.814;2023-10-08T09:04:16;102256.34;;;16.85;100.00
60244;BME280;46106;51.468;5.814;2023-10-08T09:06:42;102262.59;;;16.98;100.00
60244;BME280;46106;51.468;5.814;2023-10-08T09:09:10;102268.25;;;17.08;100.00
60244;BME280;46106;51.468;5.814;2023-10-08T09:11:50;102265.25;;;17.00;100.00
60244;BME280;46106;51.468;5.814;2023-10-08T09:14:23;102272.50;;;17.23;100.00
60244;BME280;46106;51.468;5.814;2023-10-08T09:16:50;102260.72;;;17.42;100.00
60244;BME280;46106;51.468;5.814;2023-10-08T09:19:16;102261.84;;;17.72;100.00
60244;BME280;46106;51.468;5.814;2023-10-08T09:22:05;102269.28;;;17.72;100.00
60244;BME280;46106;51.468;5.814;2023-10-08T09:24:32;102266.63;;;18.03;100.00
60244;BME280;46106;51.468;5.814;2023-10-08T09:26:59;102258.47;;;17.69;100.00
60244;BME280;46106;51.468;5.814;2023-10-08T09:29:26;102260.44;;;17.78;100.00
60244;BME280;46106;51.468;5.814;2023-10-08T09:31:59;102266.16;;;17.65;100.00
60244;BME280;46106;51.468;5.814;2023-10-08T09:34:29;102266.16;;;17.33;100.00
60244;BME280;46106;51.468;5.814;2023-10-08T09:36:58;102261.88;;;17.61;100.00
60244;BME280;46106;51.468;5.814;2023-10-08T09:39:28;102274.34;;;17.67;100.00
60244;BME280;46106;51.468;5.814;2023-10-08T09:41:56;102267.84;;;17.56;100.00
60244;BME280;46106;51.468;5.814;2023-10-08T09:44:23;102276.28;;;17.22;100.00
60244;BME280;46106;51.468;5.814;2023-10-08T09:46:53;102273.00;;;17.29;100.00
60244;BME280;46106;51.468;5.814;2023-10-08T09:49:28;102273.41;;;17.13;100.00
60244;BME280;46106;51.468;5.814;2023-10-08T09:51:55;102265.81;;;17.26;100.00
60244;BME280;46106;51.468;5.814;2023-10-08T09:54:24;102272.97;;;17.40;100.00
60244;BME280;46106;51.468;5.814;2023-10-08T09:56:58;102288.97;;;17.25;100.00
60244;BME280;46106;51.468;5.814;2023-10-08T09:59:26;102275.56;;;17.09;100.00
60244;BME280;46106;51.468;5.814;2023-10-08T10:01:54;102277.28;;;17.10;100.00
60244;BME280;46106;51.468;5.814;2023-10-08T10:04:24;102275.81;;;17.06;100.00
60244;BME280;46106;51.468;5.814;2023-10-08T10:06:50;102271.66;;;17.00;100.00
60244;BME280;46106;51.468;5.814;2023-10-08T10:09:23;102278.44;;;17.07;100.00
60244;BME280;46106;51.468;5.814;2023-10-08T10:11:50;102269.06;;;16.87;100.00
60244;BME280;46106;51.468;5.814;2023-10-08T10:14:17;102270.28;;;16.95;100.00
60244;BME280;46106;51.468;5.814;2023-10-08T10:16:43;102265.13;;;16.90;100.00
60244;BME280;46106;51.468;5.814;2023-10-08T10:19:17;102256.84;;;16.90;100.00
60244;BME280;46106;51.468;5.814;2023-10-08T10:21:43;102269.53;;;16.81;100.00
60244;BME280;46106;51.468;5.814;2023-10-08T10:24:32;102268.38;;;16.84;100.00
60244;BME280;46106;51.468;5.814;2023-10-08T10:27:14;102278.47;;;16.96;100.00
60244;BME280;46106;51.468;5.814;2023-10-08T10:29:43;102277.84;;;17.04;100.00
60244;BME280;46106;51.468;5.814;2023-10-08T10:32:10;102267.38;;;17.07;100.00
60244;BME280;46106;51.468;5.814;2023-10-08T10:34:38;102269.81;;;16.89;100.00
60244;BME280;46106;51.468;5.814;2023-10-08T10:37:05;102266.00;;;17.02;100.00
60244;BME280;46106;51.468;5.814;2023-10-08T10:39:35;102271.31;;;16.60;100.00
60244;BME280;46106;51.468;5.814;2023-10-08T10:42:05;102268.66;;;16.81;100.00
60244;BME280;46106;51.468;5.814;2023-10-08T10:44:33;102262.06;;;17.16;100.00
60244;BME280;46106;51.468;5.814;2023-10-08T10:47:02;102261.56;;;17.22;100.00
60244;BME280;46106;51.468;5.814;2023-10-08T10:49:41;102260.88;;;17.30;100.00
60244;BME280;46106;51.468;5.814;2023-10-08T10:52:28;102255.81;;;17.35;100.00
60244;BME280;46106;51.468;5.814;2023-10-08T10:55:13;102270.72;;;17.22;100.00
60244;BME280;46106;51.468;5.814;2023-10-08T10:57:54;102272.16;;;17.17;100.00
60244;BME280;46106;51.468;5.814;2023-10-08T11:00:30;102280.72;;;17.14;100.00
60244;BME280;46106;51.468;5.814;2023-10-08T11:03:00;102285.88;;;17.07;100.00
60244;BME280;46106;51.468;5.814;2023-10-08T11:05:29;102273.63;;;17.21;100.00
60244;BME280;46106;51.468;5.814;2023-10-08T11:07:59;102278.16;;;17.22;100.00
60244;BME280;46106;51.468;5.814;2023-10-08T11:10:36;102286.75;;;17.07;100.00
60244;BME280;46106;51.468;5.814;2023-10-08T11:13:33;102284.13;;;16.95;100.00
60244;BME280;46106;51.468;5.814;2023-10-08T11:16:07;102277.19;;;17.00;100.00
60244;BME280;46106;51.468;5.814;2023-10-08T11:18:35;102288.53;;;16.97;100.00
60244;BME280;46106;51.468;5.814;2023-10-08T11:21:09;102291.03;;;16.78;100.00
60244;BME280;46106;51.468;5.814;2023-10-08T11:23:43;102292.03;;;16.77;100.00
60244;BME280;46106;51.468;5.814;2023-10-08T11:26:09;102291.94;;;16.89;100.00
60244;BME280;46106;51.468;5.814;2023-10-08T11:28:39;102291.06;;;16.89;100.00
60244;BME280;46106;51.468;5.814;2023-10-08T11:31:10;102282.22;;;17.06;100.00
60244;BME280;46106;51.468;5.814;2023-10-08T11:33:40;102281.09;;;16.98;100.00
60244;BME280;46106;51.468;5.814;2023-10-08T11:36:08;102277.19;;;17.00;100.00
60244;BME280;46106;51.468;5.814;2023-10-08T11:38:48;102283.25;;;16.94;100.00
60244;BME280;46106;51.468;5.814;2023-10-08T11:41:15;102269.44;;;16.94;100.00
60244;BME280;46106;51.468;5.814;2023-10-08T11:43:50;102261.34;;;17.02;100.00
60244;BME280;46106;51.468;5.814;2023-10-08T11:46:20;102260.19;;;17.05;100.00
60244;BME280;46106;51.468;5.814;2023-10-08T11:48:46;102257.66;;;17.57;100.00
60244;BME280;46106;51.468;5.814;2023-10-08T11:51:12;102254.78;;;17.47;100.00
60244;BME280;46106;51.468;5.814;2023-10-08T11:53:42;102264.69;;;17.82;100.00
60244;BME280;46106;51.468;5.814;2023-10-08T11:56:10;102251.72;;;17.82;100.00
60244;BME280;46106;51.468;5.814;2023-10-08T11:58:41;102254.38;;;18.05;100.00
60244;BME280;46106;51.468;5.814;2023-10-08T12:01:12;102264.44;;;18.06;100.00
60244;BME280;46106;51.468;5.814;2023-10-08T12:03:46;102263.56;;;17.85;100.00
60244;BME280;46106;51.468;5.814;2023-10-08T12:06:14;102255.50;;;17.81;100.00
60244;BME280;46106;51.468;5.814;2023-10-08T12:08:45;102250.19;;;17.90;100.00
60244;BME280;46106;51.468;5.814;2023-10-08T12:11:15;102246.03;;;17.63;100.00
60244;BME280;46106;51.468;5.814;2023-10-08T12:13:41;102244.88;;;17.87;100.00
60244;BME280;46106;51.468;5.814;2023-10-08T12:16:13;102232.78;;;17.67;100.00
60244;BME280;46106;51.468;5.814;2023-10-08T12:18:44;102230.16;;;17.86;100.00
60244;BME280;46106;51.468;5.814;2023-10-08T12:21:13;102218.75;;;17.79;100.00
60244;BME280;46106;51.468;5.814;2023-10-08T12:23:41;102222.06;;;17.73;100.00
60244;BME280;46106;51.468;5.814;2023-10-08T12:26:09;102217.41;;;17.95;100.00
60244;BME280;46106;51.468;5.814;2023-10-08T12:28:35;102225.38;;;17.88;100.00
60244;BME280;46106;51.468;5.814;2023-10-08T12:31:02;102224.38;;;17.89;100.00
60244;BME280;46106;51.468;5.814;2023-10-08T12:33:29;102218.91;;;17.99;100.00
60244;BME280;46106;51.468;5.814;2023-10-08T12:35:56;102207.97;;;17.97;100.00
60244;BME280;46106;51.468;5.814;2023-10-08T12:38:22;102215.09;;;18.00;100.00
60244;BME280;46106;51.468;5.814;2023-10-08T12:40:49;102222.47;;;18.11;100.00
60244;BME280;46106;51.468;5.814;2023-10-08T12:43:22;102222.75;;;18.08;100.00
60244;BME280;46106;51.468;5.814;2023-10-08T12:45:51;102217.47;;;18.05;100.00
60244;BME280;46106;51.468;5.814;2023-10-08T12:48:24;102217.53;;;18.14;100.00
60244;BME280;46106;51.468;5.814;2023-10-08T12:50:51;102214.56;;;18.37;100.00
60244;BME280;46106;51.468;5.814;2023-10-08T12:53:28;102216.31;;;18.38;100.00
60244;BME280;46106;51.468;5.814;2023-10-08T12:56:03;102210.16;;;18.34;100.00
60244;BME280;46106;51.468;5.814;2023-10-08T12:58:34;102208.13;;;18.27;100.00
60244;BME280;46106;51.468;5.814;2023-10-08T13:01:09;102195.25;;;18.26;100.00
60244;BME280;46106;51.468;5.814;2023-10-08T13:03:38;102200.25;;;18.32;100.00
60244;BME280;46106;51.468;5.814;2023-10-08T13:06:10;102195.63;;;18.42;100.00
60244;BME280;46106;51.468;5.814;2023-10-08T13:08:57;102189.38;;;18.50;100.00